Time;durP1;ratioP1;P1;durP2;ratioP2;P2;SDS_P1;SDS_P2;PMS_P1;PMS_P2;Temp;Humidity;BMP_temperature;BMP_pressure;BME280_temperature;BME280_humidity;BME280_pressure;Samples;Min_cycle;Max_cycle;Signal;HPM_P1;HPM_P2
2023/01/05 00:01:05;;;;;;;27.95;4.05;;;;;;;9.60;97.75;101575.50;5030911;28;20040;-74
2023/01/05 00:03:31;;;;;;;24.17;4.78;;;;;;;9.60;97.62;101590.91;5013287;28;20037;-73
2023/01/05 00:06:10;;;;;;;27.73;4.60;;;;;;;9.58;97.47;101573.84;5029703;28;20117;-74
2023/01/05 00:08:35;;;;;;;28.00;4.68;;;;;;;9.59;96.91;101581.91;5029594;28;20630;-73
2023/01/05 00:24:45;;;;;;;15.95;3.45;;;;;;;9.50;96.61;101589.69;5046205;28;20041;-73
2023/01/05 00:27:10;;;;;;;28.50;4.85;;;;;;;9.44;96.84;101583.63;5046370;28;20040;-72
2023/01/05 00:29:35;;;;;;;24.73;4.65;;;;;;;9.44;96.92;101589.06;5040380;28;20022;-73
2023/01/05 00:32:01;;;;;;;17.75;4.32;;;;;;;9.41;96.72;101585.66;5036940;28;20086;-73
2023/01/05 00:34:26;;;;;;;26.15;4.55;;;;;;;9.36;97.08;101588.63;5040834;28;20108;-75
2023/01/05 00:36:51;;;;;;;26.75;5.50;;;;;;;9.36;97.33;101585.03;5029565;28;20061;-73
2023/01/05 00:39:17;;;;;;;29.25;4.55;;;;;;;9.32;97.35;101572.56;5030192;28;20551;-73
2023/01/05 00:41:42;;;;;;;20.63;4.40;;;;;;;9.29;97.32;101576.34;5035766;28;20111;-73
2023/01/05 00:44:08;;;;;;;27.17;4.43;;;;;;;9.26;97.09;101579.22;5012187;28;20041;-74
2023/01/05 00:46:33;;;;;;;28.98;4.43;;;;;;;9.23;97.27;101586.66;5012671;28;20045;-73
2023/01/05 00:48:58;;;;;;;25.05;4.05;;;;;;;9.19;97.74;101583.25;5029200;28;20041;-72
2023/01/05 00:51:24;;;;;;;32.30;3.80;;;;;;;9.16;97.41;101588.84;5030726;28;20029;-73
2023/01/05 00:53:49;;;;;;;26.52;4.25;;;;;;;9.09;97.62;101587.41;5028900;28;20048;-74
2023/01/05 00:56:14;;;;;;;22.70;4.15;;;;;;;9.06;97.83;101591.19;5029167;28;20079;-72
2023/01/05 00:58:40;;;;;;;19.70;3.65;;;;;;;9.04;97.89;101581.34;5039015;28;20041;-74
2023/01/05 01:01:11;;;;;;;18.58;4.47;;;;;;;8.99;98.01;101594.31;5030113;28;20034;-72
2023/01/05 01:03:36;;;;;;;31.90;5.18;;;;;;;8.97;98.12;101591.69;5037985;28;20041;-73
2023/01/05 01:06:01;;;;;;;28.23;3.88;;;;;;;8.93;97.43;101593.69;5050491;28;20040;-72
2023/01/05 01:08:27;;;;;;;22.98;4.60;;;;;;;8.92;98.27;101599.19;5045683;28;20032;-73
2023/01/05 01:10:52;;;;;;;16.75;4.13;;;;;;;8.87;97.98;101599.44;5028916;28;20787;-73
2023/01/05 01:13:18;;;;;;;19.67;3.85;;;;;;;8.83;98.76;101600.56;5011922;28;20048;-73
2023/01/05 01:15:43;;;;;;;21.98;3.67;;;;;;;8.81;98.46;101599.78;5028640;28;20037;-73
2023/01/05 01:18:09;;;;;;;25.42;4.97;;;;;;;8.79;98.45;101601.69;5028595;28;20398;-73
2023/01/05 01:20:36;;;;;;;33.35;4.47;;;;;;;8.76;98.59;101598.25;5029759;28;20499;-72
2023/01/05 01:23:03;;;;;;;28.75;4.38;;;;;;;8.72;98.79;101602.97;5029405;28;20052;-72
2023/01/05 01:25:29;;;;;;;18.95;4.93;;;;;;;8.69;98.99;101608.56;5028413;28;20472;-72
2023/01/05 01:27:54;;;;;;;24.80;4.88;;;;;;;8.65;98.87;101610.53;5029592;28;20029;-72
2023/01/05 01:30:19;;;;;;;30.27;4.82;;;;;;;8.61;99.21;101608.94;5029477;28;20029;-73
2023/01/05 01:32:45;;;;;;;22.55;4.68;;;;;;;8.60;99.12;101612.63;5028189;28;20068;-73
2023/01/05 01:35:10;;;;;;;22.80;4.97;;;;;;;8.59;99.62;101616.28;5029661;28;20385;-75
2023/01/05 01:37:36;;;;;;;19.27;4.78;;;;;;;8.57;99.37;101622.75;5028078;28;20396;-73
2023/01/05 01:40:01;;;;;;;27.30;4.60;;;;;;;8.54;100.00;101612.06;5011659;28;20563;-72
2023/01/05 01:42:28;;;;;;;28.23;4.80;;;;;;;8.55;100.00;101624.66;5027642;28;20044;-73
2023/01/05 01:44:57;;;;;;;29.98;6.75;;;;;;;8.55;99.86;101625.53;5035287;28;20029;-72
2023/01/05 01:47:42;;;;;;;21.55;3.60;;;;;;;8.54;99.90;101626.50;5032695;28;20470;-73
2023/01/05 01:50:16;;;;;;;29.35;5.45;;;;;;;8.53;99.99;101622.00;5030681;28;20091;-73
2023/01/05 01:52:47;;;;;;;30.77;4.85;;;;;;;8.56;100.00;101638.13;5047622;28;20119;-72
2023/01/05 01:55:12;;;;;;;23.30;7.28;;;;;;;8.56;100.00;101627.28;5030904;28;20034;-72
2023/01/05 01:57:39;;;;;;;21.08;4.13;;;;;;;8.59;100.00;101640.69;5027171;28;20045;-76
2023/01/05 02:00:07;;;;;;;33.13;4.50;;;;;;;8.59;100.00;101640.69;5043651;28;20037;-72
2023/01/05 02:02:44;;;;;;;29.95;4.60;;;;;;;8.62;100.00;101632.38;5029054;28;20164;-73
2023/01/05 02:05:11;;;;;;;19.88;4.47;;;;;;;8.67;100.00;101645.72;5027651;28;20037;-72
2023/01/05 02:07:42;;;;;;;29.30;5.07;;;;;;;8.73;100.00;101641.81;5028684;28;20480;-73
2023/01/05 02:10:08;;;;;;;25.42;4.28;;;;;;;8.74;100.00;101644.44;5027809;28;20116;-73
2023/01/05 02:12:47;;;;;;;32.72;4.82;;;;;;;8.78;100.00;101648.75;5040200;28;20604;-73
2023/01/05 02:15:41;;;;;;;28.20;5.18;;;;;;;8.81;100.00;101647.72;5029395;28;20049;-73
2023/01/05 02:18:19;;;;;;;24.45;4.78;;;;;;;8.86;100.00;101641.09;5020461;28;20067;-73
2023/01/05 02:21:01;;;;;;;21.52;4.75;;;;;;;8.89;100.00;101646.34;5027137;28;20034;-73
2023/01/05 02:23:43;;;;;;;23.67;4.68;;;;;;;8.91;100.00;101646.28;5027401;28;20025;-73
2023/01/05 02:26:46;;;;;;;31.42;4.55;;;;;;;8.94;100.00;101652.41;5027267;28;20128;-72
2023/01/05 02:29:15;;;;;;;24.90;5.53;;;;;;;8.97;100.00;101645.97;5033533;28;20407;-74
2023/01/05 02:32:03;;;;;;;38.85;6.13;;;;;;;9.01;100.00;101654.81;5014479;28;20112;-73
2023/01/05 02:35:11;;;;;;;26.80;4.82;;;;;;;9.03;100.00;101651.06;5040674;28;20060;-72
2023/01/05 02:37:50;;;;;;;20.27;3.65;;;;;;;9.06;100.00;101652.75;5016288;28;20526;-72
2023/01/05 02:40:30;;;;;;;28.98;4.22;;;;;;;9.08;99.70;101653.53;5028529;28;20045;-73
2023/01/05 02:42:58;;;;;;;23.88;3.83;;;;;;;9.07;99.76;101649.06;5029591;28;20489;-75
2023/01/05 02:45:24;;;;;;;22.08;4.05;;;;;;;9.13;99.97;101656.88;5035669;28;20033;-72
2023/01/05 02:47:54;;;;;;;23.52;4.15;;;;;;;9.15;99.58;101652.25;5011902;28;20068;-74
2023/01/05 02:50:28;;;;;;;31.13;4.20;;;;;;;9.17;99.70;101659.34;5027196;28;20447;-73
2023/01/05 02:53:08;;;;;;;25.00;4.38;;;;;;;9.17;99.64;101648.47;5027186;28;20036;-74
2023/01/05 02:55:54;;;;;;;18.67;3.40;;;;;;;9.22;99.32;101659.09;5027381;28;20041;-75
2023/01/05 02:58:27;;;;;;;30.02;5.10;;;;;;;9.25;99.20;101663.50;5027224;28;20481;-72
2023/01/05 03:00:57;;;;;;;28.70;4.32;;;;;;;9.28;99.01;101660.59;5027065;28;20034;-73
2023/01/05 03:03:27;;;;;;;23.95;3.72;;;;;;;9.29;99.07;101665.09;5033112;28;20056;-73
2023/01/05 03:06:08;;;;;;;30.83;4.95;;;;;;;9.30;98.58;101662.28;5015167;28;20135;-73
2023/01/05 03:08:46;;;;;;;26.75;4.22;;;;;;;9.34;98.62;101660.28;5041993;28;20480;-73
2023/01/05 03:14:11;;;;;;;23.05;3.92;;;;;;;9.38;98.56;101659.16;5041487;28;20052;-74
2023/01/05 03:16:38;;;;;;;20.70;3.80;;;;;;;9.39;98.22;101669.06;5030962;28;20440;-73
2023/01/05 03:36:06;;;;;;;24.45;4.30;;;;;;;9.47;97.46;101666.81;5030607;28;20061;-72
2023/01/05 03:38:43;;;;;;;26.90;5.10;;;;;;;9.49;97.61;101681.16;5013559;28;20041;-73
2023/01/05 03:41:12;;;;;;;24.52;3.47;;;;;;;9.47;97.28;101669.53;5030387;28;20041;-72
2023/01/05 03:43:39;;;;;;;18.35;3.75;;;;;;;9.48;97.72;101673.97;5013800;28;20515;-73
2023/01/05 03:46:13;;;;;;;20.77;4.22;;;;;;;9.48;97.86;101667.69;5030277;28;20033;-72
2023/01/05 03:48:39;;;;;;;27.98;3.97;;;;;;;9.49;97.20;101669.44;5030386;28;20041;-73
2023/01/05 03:51:05;;;;;;;28.20;4.60;;;;;;;9.48;97.20;101682.13;5030048;28;20060;-74
2023/01/05 03:53:33;;;;;;;21.65;4.72;;;;;;;9.50;97.59;101673.88;5049588;28;20086;-74
2023/01/05 03:55:58;;;;;;;17.50;3.30;;;;;;;9.52;97.37;101682.84;5049160;28;20399;-73
2023/01/05 03:58:24;;;;;;;29.45;5.43;;;;;;;9.53;97.52;101684.59;5029906;28;20389;-73
2023/01/05 04:00:50;;;;;;;28.52;4.15;;;;;;;9.53;97.33;101685.47;5029957;28;20033;-73
2023/01/05 04:03:19;;;;;;;34.30;5.65;;;;;;;9.54;97.23;101675.47;5030011;28;20045;-73
2023/01/05 04:05:45;;;;;;;18.67;3.60;;;;;;;9.56;97.25;101677.16;5031265;28;20071;-72
2023/01/05 04:08:11;;;;;;;26.60;4.85;;;;;;;9.60;97.12;101684.16;5029648;28;20449;-73
2023/01/05 04:10:37;;;;;;;22.33;4.18;;;;;;;9.59;97.30;101674.25;5013290;28;20108;-73
2023/01/05 04:13:03;;;;;;;26.58;4.75;;;;;;;9.61;97.12;101679.63;5028633;28;20120;-74
2023/01/05 04:15:28;;;;;;;24.48;4.10;;;;;;;9.62;97.37;101675.94;5029763;28;20034;-73
2023/01/05 04:17:54;;;;;;;26.73;4.00;;;;;;;9.62;97.14;101676.81;5032493;28;20072;-73
2023/01/05 04:20:20;;;;;;;30.98;5.40;;;;;;;9.63;97.42;101678.56;5050852;28;20033;-72
2023/01/05 04:22:45;;;;;;;37.53;5.57;;;;;;;9.62;97.21;101678.66;5033631;28;20451;-73
2023/01/05 04:25:11;;;;;;;28.10;4.70;;;;;;;9.64;97.17;101688.47;5029632;28;20060;-72
2023/01/05 04:27:40;;;;;;;28.05;4.32;;;;;;;9.64;97.08;101680.31;5028854;28;20041;-74
2023/01/05 04:30:06;;;;;;;22.58;4.47;;;;;;;9.64;96.88;101693.03;5039706;28;20028;-73
2023/01/05 04:32:32;;;;;;;29.83;5.28;;;;;;;9.65;97.14;101681.19;5039640;28;20091;-73
2023/01/05 04:34:57;;;;;;;28.42;4.20;;;;;;;9.65;96.75;101668.50;5041282;28;20029;-73
2023/01/05 04:37:23;;;;;;;22.55;4.28;;;;;;;9.67;96.73;101682.00;5030778;28;20497;-73
2023/01/05 04:39:48;;;;;;;30.42;4.25;;;;;;;9.67;96.89;101674.72;5047086;28;20132;-72
2023/01/05 04:42:14;;;;;;;22.25;4.20;;;;;;;9.69;96.98;101689.09;5045302;28;20120;-73
2023/01/05 04:44:41;;;;;;;24.17;4.32;;;;;;;9.68;97.12;101679.19;5029031;28;20087;-73
2023/01/05 04:47:06;;;;;;;27.48;5.22;;;;;;;9.67;96.67;101685.59;5029000;28;20033;-73
2023/01/05 04:49:36;;;;;;;21.85;4.22;;;;;;;9.66;96.90;101681.13;5029100;28;20025;-72
2023/01/05 04:52:05;;;;;;;36.20;5.43;;;;;;;9.62;96.85;101665.06;5028468;28;20037;-73
2023/01/05 04:54:32;;;;;;;25.77;4.47;;;;;;;9.66;97.08;101688.41;5028978;28;20064;-73
2023/01/05 04:56:57;;;;;;;23.85;4.88;;;;;;;9.66;96.88;101681.13;5028608;28;20109;-73
2023/01/05 04:59:23;;;;;;;26.50;4.97;;;;;;;9.65;97.36;101679.38;5028806;28;20036;-72
2023/01/05 05:01:51;;;;;;;20.80;3.88;;;;;;;9.65;97.17;101671.22;5013038;28;20060;-73
2023/01/05 05:04:17;;;;;;;25.17;4.32;;;;;;;9.67;97.02;101688.31;5012749;28;20056;-73
2023/01/05 05:06:43;;;;;;;25.40;5.13;;;;;;;9.68;96.86;101686.47;5012431;28;20515;-73
2023/01/05 05:09:10;;;;;;;28.75;4.53;;;;;;;9.68;96.70;101691.91;5028326;28;20032;-73
2023/01/05 05:11:37;;;;;;;21.52;3.83;;;;;;;9.66;97.07;101688.41;5012378;28;20034;-74
2023/01/05 05:14:02;;;;;;;26.45;4.40;;;;;;;9.69;96.66;101696.34;5028368;28;20037;-73
2023/01/05 05:16:28;;;;;;;19.45;4.45;;;;;;;9.69;96.93;101705.38;5028706;28;20045;-73
2023/01/05 05:18:53;;;;;;;32.80;4.47;;;;;;;9.70;96.49;101711.72;5012087;28;20124;-72
2023/01/05 05:21:24;;;;;;;24.08;4.65;;;;;;;9.72;96.73;101726.09;5025401;28;20044;-74
2023/01/05 05:23:50;;;;;;;32.42;5.03;;;;;;;9.71;96.63;101718.91;5047230;28;20029;-74
2023/01/05 05:26:16;;;;;;;23.17;4.20;;;;;;;9.75;97.07;101719.63;5048325;28;20124;-73
2023/01/05 05:28:44;;;;;;;25.92;6.63;;;;;;;9.75;96.73;101722.34;5031846;28;20393;-73
2023/01/05 05:31:09;;;;;;;24.13;4.35;;;;;;;9.76;96.25;101721.38;5028443;28;20037;-72
2023/01/05 05:33:36;;;;;;;26.92;5.15;;;;;;;9.75;96.53;101715.06;5048573;28;20480;-72
2023/01/05 05:36:02;;;;;;;25.25;3.90;;;;;;;9.77;96.21;101726.72;5049436;28;20021;-74
2023/01/05 05:38:28;;;;;;;24.83;4.45;;;;;;;9.76;96.47;101719.53;5036850;28;20570;-74
2023/01/05 05:40:53;;;;;;;29.17;4.10;;;;;;;9.74;96.72;101721.44;5029547;28;20095;-73
2023/01/05 05:43:18;;;;;;;27.15;5.45;;;;;;;9.74;96.75;101728.72;5029022;28;20033;-73
2023/01/05 05:45:44;;;;;;;27.50;4.40;;;;;;;9.73;96.94;101732.41;5027862;28;20043;-73
2023/01/05 05:48:09;;;;;;;24.95;5.07;;;;;;;9.72;96.83;101734.25;5028145;28;20044;-73
2023/01/05 05:50:35;;;;;;;32.70;5.25;;;;;;;9.72;97.00;101734.25;5011454;28;20048;-73
2023/01/05 05:53:04;;;;;;;33.22;5.05;;;;;;;9.70;97.00;101736.19;5027873;28;20120;-73
2023/01/05 05:55:30;;;;;;;25.70;4.30;;;;;;;9.70;96.80;101737.06;5029180;28;20466;-73
2023/01/05 05:57:55;;;;;;;24.45;5.10;;;;;;;9.71;97.00;101741.53;5035320;28;20044;-73
2023/01/05 06:00:20;;;;;;;41.70;5.25;;;;;;;9.72;96.68;101745.13;5037918;28;20033;-73
2023/01/05 06:02:48;;;;;;;26.65;4.22;;;;;;;9.72;97.03;101758.69;5047560;28;20101;-73
2023/01/05 06:05:14;;;;;;;32.47;4.32;;;;;;;9.70;97.12;101758.78;5047802;28;20456;-73
2023/01/05 06:07:39;;;;;;;31.10;5.30;;;;;;;9.70;97.00;101756.06;5045490;28;20043;-73
2023/01/05 06:10:05;;;;;;;28.42;4.78;;;;;;;9.71;97.29;101765.09;5029146;28;20507;-73
2023/01/05 06:12:30;;;;;;;32.63;5.05;;;;;;;9.70;97.50;101761.50;5044756;28;20488;-74
2023/01/05 06:14:56;;;;;;;22.58;3.70;;;;;;;9.66;97.52;101757.19;5034884;28;20036;-76
2023/01/05 06:17:21;;;;;;;30.33;5.97;;;;;;;9.69;97.35;101758.84;5047670;28;20048;-74
2023/01/05 06:19:46;;;;;;;28.65;4.82;;;;;;;9.66;97.51;101757.19;5042329;28;20092;-73
2023/01/05 06:22:12;;;;;;;31.42;5.32;;;;;;;9.67;97.38;101774.38;5028056;28;20033;-73
2023/01/05 06:24:37;;;;;;;37.15;4.85;;;;;;;9.65;97.14;101774.47;5026848;28;20037;-73
2023/01/05 06:27:02;;;;;;;27.25;5.80;;;;;;;9.67;96.58;101774.38;5046051;28;20044;-73
2023/01/05 06:29:28;;;;;;;34.47;4.93;;;;;;;9.67;97.25;101774.38;5027457;28;20043;-73
2023/01/05 06:31:53;;;;;;;30.95;4.75;;;;;;;9.65;97.75;101779.00;5034132;28;20021;-73
2023/01/05 06:34:19;;;;;;;30.60;4.07;;;;;;;9.65;97.66;101782.63;5047235;28;20107;-74
2023/01/05 06:36:44;;;;;;;35.08;5.00;;;;;;;9.67;97.45;101793.41;5048455;28;20037;-73
2023/01/05 06:39:10;;;;;;;30.77;4.95;;;;;;;9.65;97.58;101788.06;5044562;28;20037;-74
2023/01/05 06:41:35;;;;;;;28.45;4.22;;;;;;;9.65;97.61;101795.28;5028803;28;20041;-73
2023/01/05 06:44:00;;;;;;;30.80;5.63;;;;;;;9.65;97.73;101800.72;5026907;28;20112;-74
2023/01/05 06:46:26;;;;;;;34.20;6.80;;;;;;;9.64;97.70;101810.72;5034734;28;20071;-74
2023/01/05 06:48:51;;;;;;;21.60;4.15;;;;;;;9.64;97.78;101815.28;5028871;28;20059;-73
2023/01/05 06:51:17;;;;;;;23.50;5.70;;;;;;;9.64;97.87;101813.44;5028518;28;20040;-73
2023/01/05 06:53:43;;;;;;;27.38;5.43;;;;;;;9.62;97.83;101809.06;5028482;28;20026;-73
2023/01/05 06:56:08;;;;;;;28.75;5.60;;;;;;;9.62;97.67;101820.81;5028612;28;20041;-72
2023/01/05 06:58:33;;;;;;;25.83;4.55;;;;;;;9.62;97.96;101828.97;5038364;28;20069;-75
2023/01/05 07:00:59;;;;;;;38.47;5.20;;;;;;;9.62;97.95;101828.09;5033000;28;20342;-73
2023/01/05 07:03:24;;;;;;;24.58;4.43;;;;;;;9.60;97.81;101825.44;5028835;28;20412;-72
2023/01/05 07:05:50;;;;;;;37.95;6.43;;;;;;;9.61;97.75;101829.94;5027121;28;20105;-73
2023/01/05 07:08:16;;;;;;;28.00;4.47;;;;;;;9.61;98.20;101827.22;5028360;28;20044;-72
2023/01/05 07:10:41;;;;;;;36.55;5.80;;;;;;;9.59;98.00;101826.41;5028309;28;20117;-72
2023/01/05 07:13:06;;;;;;;22.63;4.72;;;;;;;9.61;98.00;101834.50;5028892;28;20025;-74
2023/01/05 07:15:32;;;;;;;38.67;5.80;;;;;;;9.61;98.08;101823.63;5035298;28;20476;-73
2023/01/05 07:17:57;;;;;;;20.73;4.50;;;;;;;9.60;97.87;101821.84;5026815;28;20068;-73
2023/01/05 07:20:22;;;;;;;27.05;5.18;;;;;;;9.61;97.90;101829.94;5030508;28;20098;-73
2023/01/05 07:22:48;;;;;;;29.98;5.38;;;;;;;9.61;97.91;101829.06;5048064;28;20095;-72
2023/01/05 07:25:13;;;;;;;34.25;6.43;;;;;;;9.59;98.39;101826.41;5045508;28;20044;-72
2023/01/05 07:27:38;;;;;;;36.83;5.80;;;;;;;9.60;97.86;101836.28;5033024;28;20531;-72
2023/01/05 07:30:05;;;;;;;22.45;4.93;;;;;;;9.59;98.22;101842.69;5026714;28;20100;-72
2023/01/05 07:32:30;;;;;;;39.78;5.90;;;;;;;9.60;97.88;101843.56;5027509;28;20027;-73
2023/01/05 07:34:55;;;;;;;35.42;5.60;;;;;;;9.58;98.12;101849.09;5028478;28;20432;-73
2023/01/05 07:37:20;;;;;;;33.60;5.50;;;;;;;9.57;98.13;101849.19;5027765;28;20072;-73
2023/01/05 07:39:46;;;;;;;24.17;5.35;;;;;;;9.58;97.95;101842.78;5026222;28;20119;-72
2023/01/05 07:42:12;;;;;;;31.65;6.78;;;;;;;9.53;98.32;101840.31;5029486;28;20481;-73
2023/01/05 07:44:37;;;;;;;28.92;5.15;;;;;;;9.52;98.17;101849.44;5031194;28;20404;-72
2023/01/05 07:47:03;;;;;;;31.55;5.47;;;;;;;9.50;98.29;101851.31;5028301;28;20121;-73
2023/01/05 07:49:28;;;;;;;36.80;5.75;;;;;;;9.52;98.48;101852.13;5031596;28;20041;-72
2023/01/05 07:51:54;;;;;;;31.77;5.70;;;;;;;9.51;98.56;101861.22;5031862;28;20476;-73
2023/01/05 07:54:20;;;;;;;31.70;5.40;;;;;;;9.49;98.98;101855.00;5031411;28;20029;-73
2023/01/05 07:56:46;;;;;;;32.33;4.85;;;;;;;9.50;98.92;101861.31;5030215;28;20056;-73
2023/01/05 07:59:11;;;;;;;21.33;5.38;;;;;;;9.50;98.75;101859.47;5035294;28;20464;-75
2023/01/05 08:01:36;;;;;;;40.83;5.55;;;;;;;9.52;98.56;101870.28;5031353;28;20506;-72
2023/01/05 08:04:02;;;;;;;36.25;6.35;;;;;;;9.52;98.65;101867.56;5031655;28;20105;-74
2023/01/05 08:06:27;;;;;;;37.08;4.60;;;;;;;9.52;98.74;101865.72;5035208;28;20116;-73
2023/01/05 08:08:55;;;;;;;31.30;5.45;;;;;;;9.54;98.67;101871.06;5049993;28;20037;-73
2023/01/05 08:11:20;;;;;;;37.90;5.90;;;;;;;9.52;98.59;101870.28;5049910;28;20503;-73
2023/01/05 08:13:58;;;;;;;34.97;5.00;;;;;;;9.53;98.73;101877.47;5035363;28;20029;-73
2023/01/05 08:16:24;;;;;;;34.05;6.38;;;;;;;9.53;98.57;101875.63;5048381;28;20048;-73
2023/01/05 08:18:50;;;;;;;30.92;4.75;;;;;;;9.54;98.79;101885.53;5051075;28;20104;-72
2023/01/05 08:21:15;;;;;;;26.80;5.47;;;;;;;9.54;98.68;101893.69;5049915;28;20413;-73
2023/01/05 08:23:41;;;;;;;33.97;5.50;;;;;;;9.55;98.28;101883.69;5013205;28;20087;-73
2023/01/05 08:26:10;;;;;;;44.55;7.20;;;;;;;9.57;98.63;101890.81;5029763;28;20408;-72
2023/01/05 08:28:36;;;;;;;34.88;6.70;;;;;;;9.56;98.98;101889.06;5029102;28;20473;-73
2023/01/05 08:31:03;;;;;;;33.50;5.22;;;;;;;9.58;98.90;101895.28;5029840;28;20109;-73
2023/01/05 08:33:29;;;;;;;27.25;4.75;;;;;;;9.57;98.62;101889.94;5049206;28;20083;-74
2023/01/05 08:35:54;;;;;;;29.05;4.82;;;;;;;9.58;98.90;101889.84;5041445;28;20017;-73
2023/01/05 08:38:21;;;;;;;34.20;6.32;;;;;;;9.60;98.03;101897.91;5029217;28;20484;-73
2023/01/05 08:40:46;;;;;;;37.33;5.80;;;;;;;9.63;98.16;101905.91;5030494;28;20084;-73
2023/01/05 08:43:12;;;;;;;35.28;5.35;;;;;;;9.64;98.15;101903.09;5030166;28;20076;-74
2023/01/05 08:45:37;;;;;;;40.72;6.70;;;;;;;9.67;97.91;101907.50;5012290;28;20045;-73
2023/01/05 08:48:03;;;;;;;35.05;7.03;;;;;;;9.71;97.87;101915.44;5030655;28;20175;-72
2023/01/05 08:50:29;;;;;;;35.72;5.18;;;;;;;9.74;97.58;101921.66;5029132;28;20029;-73
2023/01/05 08:52:54;;;;;;;38.75;6.20;;;;;;;9.75;97.71;101923.44;5029343;28;20072;-74
2023/01/05 08:55:20;;;;;;;30.10;6.05;;;;;;;9.74;97.69;101927.97;5029159;28;20084;-73
2023/01/05 08:57:45;;;;;;;35.25;4.22;;;;;;;9.76;97.67;101928.78;5030156;28;20467;-73
2023/01/05 09:00:12;;;;;;;34.83;5.22;;;;;;;9.76;97.66;101930.63;5030284;28;20029;-73
2023/01/05 09:02:37;;;;;;;35.00;4.38;;;;;;;9.79;97.52;101930.44;5029107;28;20112;-73
2023/01/05 09:05:03;;;;;;;38.22;4.90;;;;;;;9.79;97.36;101933.16;5028998;28;20031;-72
2023/01/05 09:07:28;;;;;;;36.50;6.47;;;;;;;9.81;97.15;101934.84;5030097;28;20065;-73
2023/01/05 09:09:53;;;;;;;27.60;6.30;;;;;;;9.81;97.27;101932.13;5030476;28;20059;-73
2023/01/05 09:12:19;;;;;;;36.95;5.63;;;;;;;9.84;97.08;101942.84;5031761;28;20026;-73
2023/01/05 09:14:44;;;;;;;30.40;5.30;;;;;;;9.87;97.44;101947.25;5032126;28;20032;-74
2023/01/05 09:17:09;;;;;;;35.47;6.15;;;;;;;9.86;97.02;101945.50;5030156;28;20041;-74
2023/01/05 09:19:36;;;;;;;35.92;4.60;;;;;;;9.89;96.97;101954.38;5040722;28;20098;-73
2023/01/05 09:22:01;;;;;;;30.08;4.93;;;;;;;9.91;97.24;101946.13;5048524;28;20037;-73
2023/01/05 09:24:26;;;;;;;42.20;5.70;;;;;;;9.89;96.47;101946.22;5048393;28;20396;-75
2023/01/05 09:26:52;;;;;;;35.63;5.15;;;;;;;9.88;96.75;101941.72;5050037;28;20017;-73
2023/01/05 09:29:17;;;;;;;32.55;4.88;;;;;;;9.95;96.65;101962.19;5030207;28;20033;-73
2023/01/05 09:31:43;;;;;;;27.73;5.40;;;;;;;9.95;96.85;101964.03;5029957;28;20148;-72
2023/01/05 09:34:09;;;;;;;26.08;4.57;;;;;;;9.97;97.29;101962.97;5028481;28;20472;-73
2023/01/05 09:36:37;;;;;;;28.98;5.57;;;;;;;10.02;97.13;101972.75;5028534;28;20511;-73
2023/01/05 09:39:04;;;;;;;27.45;5.63;;;;;;;10.05;96.59;101973.47;5029113;28;20456;-72
2023/01/05 09:41:47;;;;;;;31.75;5.38;;;;;;;10.10;96.63;101975.94;5028306;28;20033;-74
2023/01/05 09:44:38;;;;;;;38.92;4.85;;;;;;;10.15;96.49;101982.03;5029215;28;20040;-73
2023/01/05 09:47:17;;;;;;;32.92;5.60;;;;;;;10.17;96.67;101972.84;5029324;28;20037;-73
2023/01/05 09:49:44;;;;;;;39.70;5.10;;;;;;;10.22;95.92;101978.91;5029638;28;20041;-73
2023/01/05 09:52:11;;;;;;;25.30;4.63;;;;;;;10.23;96.17;101980.66;5027961;28;20175;-74
2023/01/05 09:54:38;;;;;;;31.98;5.38;;;;;;;10.28;95.77;101985.00;5029520;28;20041;-73
2023/01/05 09:57:06;;;;;;;26.02;5.25;;;;;;;10.30;96.11;101986.66;5027439;28;20097;-74
2023/01/05 09:59:37;;;;;;;32.63;6.63;;;;;;;10.32;95.64;101992.94;5029094;28;20555;-73
2023/01/05 10:02:15;;;;;;;37.28;5.85;;;;;;;10.34;95.71;101985.56;5028016;28;20178;-72
2023/01/05 10:04:40;;;;;;;36.08;5.20;;;;;;;10.43;95.27;101995.94;5027788;28;20116;-75
2023/01/05 10:07:34;;;;;;;27.65;5.65;;;;;;;10.50;95.61;101998.38;5011036;28;20260;-74
2023/01/05 10:10:04;;;;;;;31.25;6.85;;;;;;;10.57;95.21;102002.50;5028366;28;20593;-74
2023/01/05 10:13:02;;;;;;;32.40;5.45;;;;;;;10.60;95.32;102000.50;5027588;28;20040;-73
2023/01/05 10:15:40;;;;;;;34.20;5.13;;;;;;;10.60;94.47;102000.50;5036130;28;20396;-73
2023/01/05 10:18:16;;;;;;;35.80;5.80;;;;;;;10.60;95.01;101999.63;5038099;28;20488;-73
2023/01/05 10:20:49;;;;;;;32.85;5.28;;;;;;;10.60;95.18;102003.22;5028804;28;20045;-73
2023/01/05 10:23:47;;;;;;;31.90;4.78;;;;;;;10.62;94.92;102011.28;5027474;28;20041;-72
2023/01/05 10:26:25;;;;;;;33.47;6.32;;;;;;;10.62;94.87;102005.84;5029793;28;20123;-72
2023/01/05 10:29:13;;;;;;;31.05;5.18;;;;;;;10.66;95.05;102012.88;5040594;28;20380;-73
2023/01/05 10:31:53;;;;;;;28.98;5.57;;;;;;;10.64;94.40;102012.97;5047348;28;20029;-73
2023/01/05 10:34:22;;;;;;;38.60;5.63;;;;;;;10.59;95.03;102006.91;5048922;28;20487;-73
2023/01/05 10:37:04;;;;;;;43.92;6.18;;;;;;;10.60;94.39;102013.22;5038143;28;20040;-74
2023/01/05 10:39:59;;;;;;;28.90;5.93;;;;;;;10.61;94.96;102015.84;5027370;28;20657;-72
2023/01/05 10:42:47;;;;;;;32.63;5.15;;;;;;;10.58;94.96;102016.00;5011336;28;20029;-73
2023/01/05 10:45:14;;;;;;;31.48;5.57;;;;;;;10.60;94.91;102018.66;5034801;28;20500;-73
2023/01/05 10:47:41;;;;;;;36.60;5.40;;;;;;;10.60;94.75;102008.66;5028165;28;20039;-74
2023/01/05 10:50:28;;;;;;;37.15;6.43;;;;;;;10.61;94.65;102006.81;5028866;28;20037;-73
2023/01/05 10:52:53;;;;;;;36.35;5.97;;;;;;;10.61;95.10;102009.53;5028683;28;20034;-73
2023/01/05 10:55:20;;;;;;;33.08;6.15;;;;;;;10.60;94.41;102011.38;5028523;28;20098;-73
2023/01/05 10:57:46;;;;;;;37.75;6.65;;;;;;;10.57;94.70;102016.97;5027042;28;20037;-73
2023/01/05 11:00:20;;;;;;;40.72;6.95;;;;;;;10.57;94.16;102016.97;5026923;28;20065;-74
2023/01/05 11:02:52;;;;;;;30.60;5.68;;;;;;;10.54;94.62;102018.97;5028524;28;20401;-73
2023/01/05 11:05:31;;;;;;;39.17;5.43;;;;;;;10.53;95.06;102026.25;5028398;28;20087;-73
2023/01/05 11:08:06;;;;;;;37.10;5.95;;;;;;;10.52;94.67;102019.06;5026943;28;20552;-76
2023/01/05 11:10:36;;;;;;;29.52;5.57;;;;;;;10.55;94.74;102018.91;5028407;28;20064;-72
2023/01/05 11:13:05;;;;;;;39.85;5.43;;;;;;;10.63;94.98;102024.84;5027970;28;20104;-72
2023/01/05 11:15:38;;;;;;;37.08;5.70;;;;;;;10.65;94.44;102024.75;5027228;28;20370;-73
2023/01/05 11:18:05;;;;;;;34.28;5.07;;;;;;;10.69;95.05;102021.78;5028467;28;20550;-73
2023/01/05 11:20:30;;;;;;;28.75;6.45;;;;;;;10.74;94.37;102021.53;5026675;28;20036;-73
2023/01/05 11:22:56;;;;;;;37.35;5.80;;;;;;;10.84;94.22;102027.34;5028832;28;20045;-73
2023/01/05 11:25:27;;;;;;;40.05;5.88;;;;;;;10.83;93.36;102018.31;5031125;28;20377;-73
2023/01/05 11:28:13;;;;;;;32.30;5.55;;;;;;;10.83;93.32;102017.44;5039947;28;20507;-73
2023/01/05 11:31:03;;;;;;;27.65;5.22;;;;;;;10.78;93.22;102016.78;5032090;28;20037;-73
2023/01/05 11:33:33;;;;;;;26.83;5.55;;;;;;;10.70;92.39;101998.16;5031952;28;20033;-74
2023/01/05 11:36:00;;;;;;;34.55;5.47;;;;;;;10.66;93.00;102002.88;5042223;28;20439;-73
2023/01/05 11:38:27;;;;;;;38.53;6.68;;;;;;;10.61;92.87;102002.25;5032282;28;20123;-73
2023/01/05 11:40:55;;;;;;;33.83;5.45;;;;;;;10.60;93.26;102010.50;5030683;28;20041;-76
2023/01/05 11:43:23;;;;;;;42.70;7.00;;;;;;;10.59;93.39;101997.88;5032017;28;20061;-72
2023/01/05 11:45:52;;;;;;;37.92;6.25;;;;;;;10.58;93.29;102005.13;5030425;28;20100;-73
2023/01/05 11:48:22;;;;;;;31.13;7.25;;;;;;;10.59;93.66;102006.91;5030565;28;20519;-72
2023/01/05 11:50:52;;;;;;;30.40;6.57;;;;;;;10.62;93.89;102000.41;5031602;28;20095;-73
2023/01/05 11:53:35;;;;;;;33.50;6.05;;;;;;;10.74;94.50;102005.19;5042786;28;20123;-73
2023/01/05 11:56:02;;;;;;;39.55;6.43;;;;;;;10.84;94.13;102000.13;5051716;28;20102;-73
2023/01/05 11:58:33;;;;;;;39.10;5.20;;;;;;;10.95;93.50;101997.66;5039585;28;20040;-73
2023/01/05 12:01:12;;;;;;;32.58;5.85;;;;;;;11.06;92.19;101994.38;5031114;28;20269;-72
2023/01/05 12:03:47;;;;;;;30.52;6.13;;;;;;;11.15;92.17;101993.84;5031644;28;20484;-73